createdAt,value
2018-05-17T00:00:37.983Z,12.47
2018-05-17T00:03:05.634Z,11.47
2018-05-17T00:05:33.161Z,12.33
2018-05-17T00:08:00.719Z,12.73
2018-05-17T00:10:28.243Z,13.23
2018-05-17T00:12:55.841Z,13.75
2018-05-17T00:15:23.461Z,12.80
2018-05-17T00:17:51.013Z,14.57
2018-05-17T00:20:18.543Z,14.10
2018-05-17T00:22:48.000Z,13.80
2018-05-17T00:25:15.519Z,13.70
2018-05-17T00:27:43.938Z,14.17
2018-05-17T00:30:11.526Z,14.70
2018-05-17T00:32:39.874Z,13.77
2018-05-17T00:35:07.395Z,13.93
2018-05-17T00:37:35.035Z,14.87
2018-05-17T00:40:02.583Z,14.70
2018-05-17T00:42:30.130Z,15.73
2018-05-17T00:44:57.659Z,15.30
2018-05-17T00:47:25.207Z,13.90
2018-05-17T00:49:52.762Z,15.90
2018-05-17T00:52:20.348Z,15.67
2018-05-17T00:54:47.854Z,14.93
2018-05-17T00:57:15.501Z,14.20
2018-05-17T00:59:43.022Z,14.90
2018-05-17T01:02:10.585Z,16.00
2018-05-17T01:04:38.444Z,14.90
2018-05-17T01:07:06.012Z,16.10
2018-05-17T01:09:33.668Z,16.43
2018-05-17T01:12:01.399Z,15.30
2018-05-17T01:14:28.923Z,15.20
2018-05-17T01:16:56.539Z,14.40
2018-05-17T01:19:24.066Z,14.00
2018-05-17T01:21:51.595Z,15.53
2018-05-17T01:24:19.199Z,13.77
2018-05-17T01:26:47.649Z,15.00
2018-05-17T01:29:17.471Z,15.67
2018-05-17T01:31:44.986Z,16.07
2018-05-17T01:34:12.553Z,15.97
2018-05-17T01:36:52.002Z,16.40
2018-05-17T01:39:19.728Z,16.63
2018-05-17T01:41:48.766Z,15.60
2018-05-17T01:44:16.302Z,16.37
2018-05-17T01:46:44.709Z,16.70
2018-05-17T01:49:12.268Z,17.03
2018-05-17T01:51:39.801Z,16.93
2018-05-17T01:54:07.378Z,17.20
2018-05-17T01:56:35.099Z,18.67
2018-05-17T01:59:02.656Z,18.37
2018-05-17T02:01:30.182Z,17.57
2018-05-17T02:03:57.835Z,18.50
2018-05-17T02:06:25.361Z,18.70
2018-05-17T02:08:52.903Z,19.97
2018-05-17T02:11:20.478Z,18.80
2018-05-17T02:13:49.530Z,19.90
2018-05-17T02:16:17.052Z,18.90
2018-05-17T02:18:44.593Z,18.83
2018-05-17T02:21:12.888Z,20.47
2018-05-17T02:23:40.540Z,20.73
2018-05-17T02:26:08.053Z,20.17
2018-05-17T02:28:35.595Z,21.50
2018-05-17T02:31:03.128Z,21.20
2018-05-17T02:33:30.684Z,20.40
2018-05-17T02:35:58.211Z,20.27
2018-05-17T02:38:25.755Z,22.07
2018-05-17T02:40:54.080Z,21.10
2018-05-17T02:43:21.610Z,20.10
2018-05-17T02:45:50.277Z,21.98
2018-05-17T02:48:17.799Z,21.90
2018-05-17T02:50:45.353Z,22.50
2018-05-17T02:53:12.883Z,21.00
2018-05-17T02:55:40.459Z,22.00
2018-05-17T02:58:08.032Z,20.90
2018-05-17T03:00:35.600Z,22.67
2018-05-17T03:03:03.147Z,21.67
2018-05-17T03:05:31.467Z,22.80
2018-05-17T03:07:58.989Z,24.33
2018-05-17T03:10:26.533Z,23.30
2018-05-17T03:12:54.068Z,23.23
2018-05-17T03:15:21.743Z,23.27
2018-05-17T03:17:50.196Z,24.97
2018-05-17T03:20:17.733Z,24.60
2018-05-17T03:22:46.164Z,24.03
2018-05-17T03:25:14.479Z,23.03
2018-05-17T03:27:42.027Z,24.20
2018-05-17T03:30:09.577Z,24.33
2018-05-17T03:32:37.211Z,24.10
2018-05-17T03:35:04.796Z,24.33
2018-05-17T03:37:33.098Z,23.97
2018-05-17T03:40:00.682Z,24.37
2018-05-17T03:42:28.203Z,25.40
2018-05-17T03:44:55.754Z,24.53
2018-05-17T03:47:23.278Z,25.97
2018-05-17T03:49:51.864Z,26.77
2018-05-17T03:52:19.404Z,25.03
2018-05-17T03:54:46.959Z,28.53
2018-05-17T03:57:14.494Z,26.60
2018-05-17T03:59:42.088Z,26.40
2018-05-17T04:02:22.487Z,27.40
2018-05-17T04:05:02.474Z,27.37
2018-05-17T04:07:30.371Z,27.83
2018-05-17T04:09:58.120Z,27.13
2018-05-17T04:12:25.943Z,26.30
2018-05-17T04:14:53.925Z,27.73
2018-05-17T04:17:21.491Z,26.93
2018-05-17T04:19:49.083Z,26.33
2018-05-17T04:22:16.617Z,26.63
2018-05-17T04:24:45.023Z,26.90
2018-05-17T04:27:12.851Z,27.47
2018-05-17T04:29:40.627Z,27.50
2018-05-17T04:32:09.194Z,27.57
2018-05-17T04:34:36.995Z,26.90
2018-05-17T04:37:06.144Z,25.40
2018-05-17T04:39:34.189Z,25.23
2018-05-17T04:42:02.034Z,25.23
2018-05-17T04:44:30.604Z,26.20
2018-05-17T04:46:58.586Z,24.53
2018-05-17T04:49:26.201Z,24.20
2018-05-17T04:51:53.853Z,24.40
2018-05-17T04:54:21.416Z,24.43
2018-05-17T04:56:48.985Z,24.10
2018-05-17T04:59:17.275Z,23.00
2018-05-17T05:01:44.827Z,22.10
2018-05-17T05:04:12.399Z,21.70
2018-05-17T05:06:39.943Z,22.50
2018-05-17T05:09:07.516Z,22.70
2018-05-17T05:11:35.075Z,23.10
2018-05-17T05:14:03.491Z,24.70
2018-05-17T05:16:31.040Z,21.53
2018-05-17T05:18:58.568Z,22.23
2018-05-17T05:21:26.128Z,21.10
2018-05-17T05:23:53.655Z,21.87
2018-05-17T05:26:21.208Z,20.00
2018-05-17T05:28:48.732Z,20.60
2018-05-17T05:31:16.278Z,19.90
2018-05-17T05:33:43.808Z,20.47
2018-05-17T05:36:11.420Z,20.93
2018-05-17T05:38:41.087Z,19.33
2018-05-17T05:41:08.655Z,19.40
2018-05-17T05:43:36.290Z,19.97
2018-05-17T05:46:04.149Z,18.73
2018-05-17T05:48:32.472Z,18.80
2018-05-17T05:51:00.079Z,20.40
2018-05-17T05:53:28.370Z,19.47
2018-05-17T05:55:55.931Z,17.80
2018-05-17T05:58:23.456Z,18.57
2018-05-17T06:00:51.011Z,18.63
2018-05-17T06:03:18.629Z,18.00
2018-05-17T06:05:46.913Z,17.50
2018-05-17T06:08:14.495Z,18.57
2018-05-17T06:10:42.114Z,16.40
2018-05-17T06:13:09.730Z,17.90
2018-05-17T06:15:38.032Z,18.17
2018-05-17T06:18:05.584Z,16.40
2018-05-17T06:20:33.111Z,15.63
2018-05-17T06:23:00.688Z,16.37
2018-05-17T06:25:28.213Z,16.77
2018-05-17T06:27:55.760Z,15.93
2018-05-17T06:30:23.297Z,15.30
2018-05-17T06:32:50.844Z,15.20
2018-05-17T06:35:18.938Z,15.10
2018-05-17T06:37:46.478Z,15.80
2018-05-17T06:40:15.536Z,15.30
2018-05-17T06:42:43.208Z,15.30
2018-05-17T06:45:10.736Z,15.43
2018-05-17T06:47:38.397Z,15.90
2018-05-17T06:50:06.013Z,15.27
2018-05-17T06:52:35.170Z,15.20
2018-05-17T06:55:02.743Z,14.70
2018-05-17T06:57:30.300Z,14.90
2018-05-17T06:59:58.443Z,13.93
2018-05-17T07:02:26.174Z,13.93
2018-05-17T07:04:53.711Z,14.53
2018-05-17T07:07:21.266Z,13.53
2018-05-17T07:09:48.791Z,13.90
2018-05-17T07:12:16.394Z,12.70
2018-05-17T07:14:45.226Z,14.70
2018-05-17T07:17:12.873Z,15.77
2018-05-17T07:19:40.432Z,13.90
2018-05-17T07:22:08.036Z,13.70
2018-05-17T07:24:36.455Z,14.83
2018-05-17T07:27:04.037Z,13.10
2018-05-17T07:29:31.561Z,14.17
2018-05-17T07:31:59.180Z,13.90
2018-05-17T07:34:26.725Z,14.10
2018-05-17T07:36:54.269Z,13.97
2018-05-17T07:39:21.866Z,20.10
2018-05-17T07:41:49.411Z,13.83
2018-05-17T07:44:17.108Z,13.20
2018-05-17T07:46:44.700Z,11.80
2018-05-17T07:49:12.273Z,13.30
2018-05-17T07:51:39.817Z,13.03
2018-05-17T07:54:07.392Z,12.15
2018-05-17T07:56:34.932Z,12.40
2018-05-17T07:59:02.497Z,11.07
2018-05-17T08:01:30.048Z,12.53
2018-05-17T08:03:57.605Z,11.20
2018-05-17T08:06:25.894Z,10.50
2018-05-17T08:08:53.482Z,10.80
2018-05-17T08:11:21.035Z,9.87
2018-05-17T08:13:48.584Z,10.87
2018-05-17T08:16:16.888Z,10.13
2018-05-17T08:18:44.479Z,10.27
2018-05-17T08:21:12.003Z,10.10
2018-05-17T08:23:39.733Z,9.90
2018-05-17T08:26:07.295Z,8.80
2018-05-17T08:28:34.939Z,9.70
2018-05-17T08:31:02.534Z,9.90
2018-05-17T08:33:30.122Z,10.30
2018-05-17T08:35:59.108Z,9.32
2018-05-17T08:38:26.662Z,9.57
2018-05-17T08:40:54.188Z,8.53
2018-05-17T08:43:21.739Z,8.73
2018-05-17T08:45:49.265Z,8.17
2018-05-17T08:48:16.847Z,8.63
2018-05-17T08:50:44.411Z,8.50
2018-05-17T08:53:12.736Z,10.13
2018-05-17T08:55:40.690Z,8.50
2018-05-17T08:58:08.223Z,8.97
2018-05-17T09:00:35.797Z,9.20
2018-05-17T09:03:03.339Z,9.27
2018-05-17T09:05:31.000Z,9.20
2018-05-17T09:07:59.738Z,9.90
2018-05-17T09:10:27.283Z,10.50
2018-05-17T09:12:54.819Z,9.90
2018-05-17T09:15:22.401Z,9.40
2018-05-17T09:17:49.935Z,8.47
2018-05-17T09:20:17.518Z,9.13
2018-05-17T09:22:45.062Z,9.00
2018-05-17T09:25:12.601Z,9.33
2018-05-17T09:27:41.636Z,8.97
2018-05-17T09:30:09.195Z,9.67
2018-05-17T09:32:36.723Z,8.83
2018-05-17T09:35:04.271Z,9.83
2018-05-17T09:37:31.931Z,9.33
2018-05-17T09:40:00.693Z,8.98
2018-05-17T09:42:28.223Z,10.40
2018-05-17T09:44:55.862Z,9.80
2018-05-17T09:47:23.435Z,9.10
2018-05-17T09:49:50.995Z,9.60
2018-05-17T09:52:18.521Z,8.83
2018-05-17T09:54:46.088Z,8.53
2018-05-17T09:57:13.602Z,9.63
2018-05-17T09:59:41.147Z,9.20
2018-05-17T10:02:08.661Z,9.20
2018-05-17T10:04:37.000Z,9.30
2018-05-17T10:07:05.277Z,9.43
2018-05-17T10:09:33.596Z,9.87
2018-05-17T10:12:01.155Z,10.17
2018-05-17T10:14:28.894Z,9.93
2018-05-17T10:16:56.411Z,9.67
2018-05-17T10:19:23.955Z,10.00
2018-05-17T10:21:51.480Z,8.40
2018-05-17T10:24:19.008Z,9.43
2018-05-17T10:26:47.410Z,9.47
2018-05-17T10:29:14.951Z,9.00
2018-05-17T10:31:42.491Z,9.40
2018-05-17T10:34:10.058Z,9.70
2018-05-17T10:36:37.594Z,10.50
2018-05-17T10:39:05.110Z,10.40
2018-05-17T10:41:32.666Z,11.17
2018-05-17T10:44:01.917Z,11.60
2018-05-17T10:46:30.235Z,11.67
2018-05-17T10:48:57.803Z,10.53
2018-05-17T10:51:25.536Z,10.30
2018-05-17T10:53:53.177Z,10.00
2018-05-17T10:56:20.735Z,10.70
2018-05-17T10:58:48.337Z,9.27
2018-05-17T11:01:16.005Z,10.25
2018-05-17T11:03:43.961Z,10.50
2018-05-17T11:06:12.285Z,9.40
2018-05-17T11:08:40.600Z,9.50
2018-05-17T11:11:08.171Z,10.07
2018-05-17T11:13:35.784Z,10.90
2018-05-17T11:16:03.370Z,11.40
2018-05-17T11:18:30.973Z,12.00
2018-05-17T11:20:58.595Z,12.33
2018-05-17T11:23:26.114Z,9.57
2018-05-17T11:25:54.637Z,11.30
2018-05-17T11:28:22.041Z,10.67
2018-05-17T11:30:49.898Z,10.27
2018-05-17T11:33:17.419Z,9.63
2018-05-17T11:35:45.734Z,10.70
2018-05-17T11:38:13.271Z,11.17
2018-05-17T11:40:40.816Z,10.70
2018-05-17T11:43:08.751Z,9.67
2018-05-17T11:45:36.449Z,11.00
2018-05-17T11:48:04.309Z,10.63
2018-05-17T11:50:31.877Z,9.10
2018-05-17T11:52:59.465Z,10.30
2018-05-17T11:55:27.109Z,9.47
2018-05-17T11:57:54.627Z,10.97
2018-05-17T12:00:22.299Z,10.83
2018-05-17T12:02:49.847Z,8.43
2018-05-17T12:05:17.379Z,9.00
2018-05-17T12:07:44.967Z,10.67
2018-05-17T12:10:12.515Z,10.33
2018-05-17T12:12:40.064Z,9.03
2018-05-17T12:15:08.394Z,10.10
2018-05-17T12:17:36.033Z,8.83
2018-05-17T12:20:04.093Z,8.38
2018-05-17T12:22:32.964Z,9.40
2018-05-17T12:25:00.515Z,8.97
2018-05-17T12:27:28.066Z,9.53
2018-05-17T12:29:55.638Z,9.13
2018-05-17T12:32:23.960Z,10.07
2018-05-17T12:34:51.490Z,8.23
2018-05-17T12:37:19.074Z,8.67
2018-05-17T12:39:48.963Z,8.53
2018-05-17T12:42:16.505Z,8.33
2018-05-17T12:44:44.140Z,8.07
2018-05-17T12:47:11.712Z,7.30
2018-05-17T12:49:39.245Z,7.73
2018-05-17T12:52:06.795Z,8.13
2018-05-17T12:54:34.423Z,8.97
2018-05-17T12:57:01.966Z,8.50
2018-05-17T12:59:29.512Z,8.70
2018-05-17T13:01:57.084Z,8.20
2018-05-17T13:04:25.362Z,7.37
2018-05-17T13:06:53.691Z,8.70
2018-05-17T13:09:21.205Z,8.00
2018-05-17T13:11:48.763Z,8.87
2018-05-17T13:14:16.289Z,7.97
2018-05-17T13:16:43.882Z,9.13
2018-05-17T13:19:11.451Z,9.30
2018-05-17T13:21:39.773Z,8.60
2018-05-17T13:24:07.298Z,7.90
2018-05-17T13:26:35.090Z,8.00
2018-05-17T13:29:03.411Z,8.03
2018-05-17T13:31:30.947Z,9.83
2018-05-17T13:33:58.547Z,7.90
2018-05-17T13:36:26.066Z,10.70
2018-05-17T13:38:53.617Z,10.83
2018-05-17T13:41:22.174Z,8.60
2018-05-17T13:43:49.739Z,8.60
2018-05-17T13:46:17.297Z,11.97
2018-05-17T13:48:45.660Z,10.50
2018-05-17T13:51:13.203Z,9.10
2018-05-17T13:53:41.551Z,9.87
2018-05-17T13:56:09.085Z,10.83
2018-05-17T13:58:36.823Z,10.27
2018-05-17T14:01:04.349Z,8.13
2018-05-17T14:03:31.899Z,9.17
2018-05-17T14:05:59.575Z,8.73
2018-05-17T14:08:27.996Z,8.40
2018-05-17T14:10:55.615Z,7.60
2018-05-17T14:13:23.197Z,7.70
2018-05-17T14:15:50.758Z,8.00
2018-05-17T14:18:18.374Z,7.60
2018-05-17T14:20:46.708Z,8.17
2018-05-17T14:23:14.420Z,7.43
2018-05-17T14:25:42.033Z,7.77
2018-05-17T14:28:09.696Z,6.27
2018-05-17T14:30:37.268Z,7.10
2018-05-17T14:33:04.846Z,7.50
2018-05-17T14:35:33.230Z,7.80
2018-05-17T14:38:01.019Z,7.73
2018-05-17T14:40:28.622Z,6.87
2018-05-17T14:42:56.202Z,7.83
2018-05-17T14:45:25.760Z,6.40
2018-05-17T14:47:53.426Z,6.90
2018-05-17T14:50:21.030Z,7.18
2018-05-17T14:52:49.463Z,6.90
2018-05-17T14:55:17.547Z,5.93
2018-05-17T14:57:45.156Z,6.80
2018-05-17T15:00:12.856Z,7.47
2018-05-17T15:02:41.197Z,7.07
2018-05-17T15:05:09.732Z,6.50
2018-05-17T15:07:37.421Z,6.40
2018-05-17T15:10:05.292Z,6.40
2018-05-17T15:12:32.852Z,7.20
2018-05-17T15:15:00.416Z,7.67
2018-05-17T15:17:28.043Z,6.30
2018-05-17T15:19:55.875Z,7.27
2018-05-17T15:22:23.414Z,23.20
2018-05-17T15:24:51.748Z,8.37
2018-05-17T15:27:19.430Z,9.60
2018-05-17T15:29:47.854Z,6.93
2018-05-17T15:32:15.402Z,6.53
2018-05-17T15:34:42.958Z,6.73
2018-05-17T15:37:11.271Z,7.90
2018-05-17T15:39:38.835Z,7.30
2018-05-17T15:42:06.352Z,6.23
2018-05-17T15:44:34.165Z,6.80
2018-05-17T15:47:01.459Z,6.10
2018-05-17T15:49:29.771Z,6.47
2018-05-17T15:51:57.444Z,6.80
2018-05-17T15:54:26.060Z,6.67
2018-05-17T15:56:53.842Z,6.03
2018-05-17T15:59:21.980Z,7.20
2018-05-17T16:01:50.417Z,7.10
2018-05-17T16:04:18.038Z,5.90
2018-05-17T16:06:46.093Z,6.60
2018-05-17T16:09:13.718Z,6.50
2018-05-17T16:11:41.277Z,5.60
2018-05-17T16:14:09.763Z,7.00
2018-05-17T16:16:37.325Z,6.80
2018-05-17T16:19:04.977Z,7.00
2018-05-17T16:21:32.621Z,6.77
2018-05-17T16:24:01.246Z,8.20
2018-05-17T16:26:29.577Z,7.03
2018-05-17T16:28:57.129Z,14.67
2018-05-17T16:31:24.741Z,9.80
2018-05-17T16:33:52.391Z,7.87
2018-05-17T16:36:20.704Z,15.80
2018-05-17T16:38:49.028Z,12.97
2018-05-17T16:41:16.626Z,11.50
2018-05-17T16:43:44.460Z,8.77
2018-05-17T16:46:12.774Z,7.93
2018-05-17T16:48:40.306Z,7.03
2018-05-17T16:51:07.862Z,11.10
2018-05-17T16:53:35.504Z,13.17
2018-05-17T16:56:03.092Z,9.67
2018-05-17T16:58:30.783Z,11.27
2018-05-17T17:00:58.408Z,10.30
2018-05-17T17:03:26.782Z,8.03
2018-05-17T17:05:54.323Z,7.47
2018-05-17T17:08:21.956Z,7.60
2018-05-17T17:10:50.293Z,8.77
2018-05-17T17:13:17.848Z,7.50
2018-05-17T17:15:46.200Z,10.67
2018-05-17T17:18:13.731Z,15.67
2018-05-17T17:20:41.322Z,8.17
2018-05-17T17:23:08.855Z,10.23
2018-05-17T17:25:37.476Z,8.87
2018-05-17T17:28:05.323Z,10.63
2018-05-17T17:30:32.896Z,9.23
2018-05-17T17:33:00.419Z,9.27
2018-05-17T17:35:27.993Z,8.53
2018-05-17T17:37:55.552Z,7.70
2018-05-17T17:40:29.730Z,10.37
2018-05-17T17:42:57.342Z,12.20
2018-05-17T17:45:24.914Z,13.33
2018-05-17T17:47:52.463Z,14.03
2018-05-17T17:50:20.000Z,10.83
2018-05-17T17:52:48.548Z,9.50
2018-05-17T17:55:16.096Z,10.50
2018-05-17T17:57:44.482Z,10.33
2018-05-17T18:00:12.435Z,8.43
2018-05-17T18:02:40.036Z,10.30
2018-05-17T18:05:07.677Z,10.20
2018-05-17T18:07:35.251Z,11.87
2018-05-17T18:10:02.780Z,8.40
2018-05-17T18:12:30.365Z,8.70
2018-05-17T18:14:58.845Z,12.57
2018-05-17T18:17:26.449Z,20.93
2018-05-17T18:19:55.705Z,13.10
2018-05-17T18:22:23.959Z,8.87
2018-05-17T18:24:51.681Z,10.30
2018-05-17T18:27:19.407Z,10.73
2018-05-17T18:29:46.993Z,10.20
2018-05-17T18:32:16.301Z,10.80
2018-05-17T18:34:43.860Z,10.90
2018-05-17T18:37:11.434Z,20.30
2018-05-17T18:39:39.097Z,18.27
2018-05-17T18:42:06.699Z,11.93
2018-05-17T18:44:34.231Z,12.33
2018-05-17T18:47:01.811Z,20.00
2018-05-17T18:49:29.336Z,9.20
2018-05-17T18:51:56.908Z,13.70
2018-05-17T18:54:25.255Z,11.65
2018-05-17T18:56:53.683Z,9.17
2018-05-17T18:59:21.173Z,12.47
2018-05-17T19:01:48.795Z,19.77
2018-05-17T19:04:17.049Z,12.03
2018-05-17T19:06:44.603Z,15.17
2018-05-17T19:09:12.135Z,14.90
2018-05-17T19:11:39.704Z,15.23
2018-05-17T19:14:07.381Z,13.00
2018-05-17T19:16:35.703Z,9.60
2018-05-17T19:19:04.089Z,8.80
2018-05-17T19:21:32.693Z,7.73
2018-05-17T19:24:01.043Z,9.90
2018-05-17T19:26:28.737Z,9.73
2018-05-17T19:28:56.268Z,8.17
2018-05-17T19:31:24.645Z,10.63
2018-05-17T19:33:52.120Z,9.30
2018-05-17T19:36:19.678Z,10.80
2018-05-17T19:38:47.316Z,9.53
2018-05-17T19:41:16.666Z,8.53
2018-05-17T19:43:44.220Z,8.80
2018-05-17T19:46:11.744Z,9.23
2018-05-17T19:48:40.075Z,9.13
2018-05-17T19:51:08.375Z,9.33
2018-05-17T19:53:35.952Z,10.33
2018-05-17T19:56:03.484Z,11.23
2018-05-17T19:58:31.083Z,10.47
2018-05-17T20:00:59.372Z,11.03
2018-05-17T20:03:26.968Z,12.50
2018-05-17T20:05:55.292Z,13.10
2018-05-17T20:08:22.867Z,12.30
2018-05-17T20:10:50.439Z,11.67
2018-05-17T20:13:18.899Z,11.37
2018-05-17T20:15:47.325Z,11.93
2018-05-17T20:18:16.312Z,13.30
2018-05-17T20:20:43.859Z,10.40
2018-05-17T20:23:11.403Z,11.43
2018-05-17T20:25:38.930Z,12.67
2018-05-17T20:28:06.651Z,13.53
2018-05-17T20:30:34.187Z,11.40
2018-05-17T20:33:01.743Z,12.03
2018-05-17T20:35:29.514Z,12.70
2018-05-17T20:37:57.162Z,12.70
2018-05-17T20:40:24.692Z,14.53
2018-05-17T20:42:52.250Z,12.13
2018-05-17T20:45:19.800Z,13.00
2018-05-17T20:47:47.356Z,12.80
2018-05-17T20:50:14.901Z,11.90
2018-05-17T20:52:42.464Z,13.43
2018-05-17T20:55:10.171Z,12.37
2018-05-17T20:57:38.455Z,12.90
2018-05-17T21:00:05.996Z,12.52
2018-05-17T21:02:33.576Z,11.63
2018-05-17T21:05:02.363Z,12.77
2018-05-17T21:07:30.043Z,13.10
2018-05-17T21:09:57.592Z,14.20
2018-05-17T21:12:25.149Z,12.30
2018-05-17T21:14:52.719Z,11.73
2018-05-17T21:17:20.253Z,13.83
2018-05-17T21:19:47.811Z,13.27
2018-05-17T21:22:15.364Z,13.03
2018-05-17T21:24:42.915Z,13.47
2018-05-17T21:27:11.251Z,14.30
2018-05-17T21:29:38.779Z,13.67
2018-05-17T21:32:06.294Z,14.00
2018-05-17T21:34:33.846Z,13.60
2018-05-17T21:37:01.358Z,13.97
2018-05-17T21:39:29.786Z,13.77
2018-05-17T21:41:58.231Z,13.83
2018-05-17T21:44:25.784Z,12.00
2018-05-17T21:46:53.421Z,11.57
2018-05-17T21:49:20.971Z,13.10
2018-05-17T21:51:48.503Z,12.23
2018-05-17T21:54:16.157Z,12.20
2018-05-17T21:56:43.786Z,11.63
2018-05-17T21:59:11.468Z,14.43
2018-05-17T22:01:39.058Z,12.93
2018-05-17T22:04:06.760Z,13.23
2018-05-17T22:06:34.396Z,12.70
2018-05-17T22:09:01.942Z,14.00
2018-05-17T22:11:29.471Z,12.10
2018-05-17T22:13:56.998Z,12.40
2018-05-17T22:16:24.548Z,13.23
2018-05-17T22:18:52.113Z,13.23
2018-05-17T22:21:19.655Z,12.00
2018-05-17T22:23:47.643Z,11.73
2018-05-17T22:26:15.207Z,12.27
2018-05-17T22:28:43.529Z,11.93
2018-05-17T22:31:11.080Z,12.00
2018-05-17T22:33:38.681Z,10.63
2018-05-17T22:36:06.253Z,13.73
2018-05-17T22:38:33.799Z,12.10
2018-05-17T22:41:01.445Z,12.13
2018-05-17T22:43:28.989Z,11.00
2018-05-17T22:45:56.539Z,12.67
2018-05-17T22:48:24.076Z,12.40
2018-05-17T22:50:51.639Z,10.30
2018-05-17T22:53:20.090Z,11.60
2018-05-17T22:55:47.639Z,12.70
2018-05-17T22:58:27.092Z,11.47
2018-05-17T23:00:54.644Z,11.00
2018-05-17T23:03:22.940Z,12.53
2018-05-17T23:05:50.517Z,10.67
2018-05-17T23:08:18.071Z,10.80
2018-05-17T23:10:45.876Z,10.13
2018-05-17T23:13:13.408Z,11.47
2018-05-17T23:15:41.718Z,11.10
2018-05-17T23:18:09.264Z,11.30
2018-05-17T23:20:36.818Z,10.70
2018-05-17T23:23:04.352Z,11.33
2018-05-17T23:25:31.912Z,10.83
2018-05-17T23:27:59.447Z,11.33
2018-05-17T23:30:27.011Z,10.70
2018-05-17T23:32:54.549Z,11.33
2018-05-17T23:35:22.076Z,11.10
2018-05-17T23:37:49.631Z,11.60
2018-05-17T23:43:13.060Z,11.37
2018-05-17T23:45:40.592Z,11.50
2018-05-17T23:48:08.144Z,11.70
2018-05-17T23:50:35.688Z,10.83
2018-05-17T23:53:03.241Z,9.97
2018-05-17T23:55:30.778Z,11.77
2018-05-17T23:57:58.367Z,11.30
